createdAt,value
2022-12-03T00:00:12.159Z,11.03
2022-12-03T00:02:41.079Z,11.83
2022-12-03T00:05:09.242Z,11.93
2022-12-03T00:07:36.576Z,12.20
2022-12-03T00:10:05.556Z,12.47
2022-12-03T00:12:32.839Z,10.93
2022-12-03T00:15:00.098Z,11.73
2022-12-03T00:17:27.369Z,12.63
2022-12-03T00:19:54.612Z,11.63
2022-12-03T00:22:21.995Z,14.03
2022-12-03T00:24:49.220Z,8.93
2022-12-03T00:27:16.494Z,10.10
2022-12-03T00:29:44.298Z,10.57
2022-12-03T00:32:12.191Z,10.67
2022-12-03T00:34:39.404Z,10.73
2022-12-03T00:37:06.946Z,10.17
2022-12-03T00:39:34.480Z,10.27
2022-12-03T00:42:01.897Z,13.63
2022-12-03T00:44:29.113Z,10.23
2022-12-03T00:46:56.418Z,9.63
2022-12-03T00:49:23.693Z,10.63
2022-12-03T00:51:51.033Z,10.20
2022-12-03T00:54:18.508Z,10.10
2022-12-03T00:56:45.972Z,10.60
2022-12-03T00:59:13.435Z,9.77
2022-12-03T01:01:41.103Z,9.30
2022-12-03T01:04:08.684Z,8.57
2022-12-03T01:06:36.042Z,11.20
2022-12-03T01:09:03.977Z,8.40
2022-12-03T01:11:41.318Z,11.23
2022-12-03T01:14:12.292Z,9.33
2022-12-03T01:16:40.221Z,10.33
2022-12-03T01:19:10.356Z,8.87
2022-12-03T01:21:38.046Z,10.47
2022-12-03T01:24:05.651Z,11.63
2022-12-03T01:26:32.930Z,9.83
2022-12-03T01:29:00.108Z,11.07
2022-12-03T01:31:45.758Z,11.53
2022-12-03T01:34:13.224Z,8.97
2022-12-03T01:36:40.875Z,11.10
2022-12-03T01:39:08.132Z,9.20
2022-12-03T01:41:36.337Z,10.77
2022-12-03T01:44:11.291Z,8.67
2022-12-03T01:46:40.772Z,10.40
2022-12-03T01:49:16.829Z,8.17
2022-12-03T01:51:44.446Z,9.30
2022-12-03T01:54:18.241Z,9.43
2022-12-03T01:56:46.201Z,9.90
2022-12-03T01:59:16.921Z,9.87
2022-12-03T02:01:44.257Z,8.47
2022-12-03T02:04:16.800Z,9.23
2022-12-03T02:06:44.766Z,9.57
2022-12-03T02:09:13.090Z,10.63
2022-12-03T02:11:44.944Z,10.30
2022-12-03T02:14:19.944Z,9.13
2022-12-03T02:16:47.730Z,10.60
2022-12-03T02:19:35.550Z,9.67
2022-12-03T02:22:14.676Z,10.10
2022-12-03T02:25:04.213Z,8.53
2022-12-03T02:27:31.568Z,10.83
2022-12-03T02:29:58.820Z,12.17
2022-12-03T02:32:26.261Z,9.90
2022-12-03T02:34:53.852Z,10.57
2022-12-03T02:37:32.466Z,9.83
2022-12-03T02:40:04.605Z,11.50
2022-12-03T02:42:37.784Z,8.50
2022-12-03T02:45:26.701Z,9.80
2022-12-03T02:48:08.492Z,10.00
2022-12-03T02:50:42.339Z,9.83
2022-12-03T02:53:15.046Z,9.60
2022-12-03T02:55:42.728Z,12.60
2022-12-03T02:58:11.245Z,10.03
2022-12-03T03:00:39.202Z,10.13
2022-12-03T03:03:08.800Z,8.40
2022-12-03T03:05:38.609Z,9.50
2022-12-03T03:08:08.015Z,11.23
2022-12-03T03:10:37.893Z,9.97
2022-12-03T03:13:10.084Z,9.90
2022-12-03T03:15:39.124Z,8.63
2022-12-03T03:18:08.333Z,10.87
2022-12-03T03:20:36.635Z,9.20
2022-12-03T03:23:18.433Z,10.60
2022-12-03T03:26:10.300Z,11.17
2022-12-03T03:28:41.961Z,10.33
2022-12-03T03:31:12.746Z,9.30
2022-12-03T03:33:43.392Z,10.40
2022-12-03T03:36:11.324Z,13.83
2022-12-03T03:38:41.603Z,11.47
2022-12-03T03:41:10.134Z,11.07
2022-12-03T03:43:38.918Z,10.93
2022-12-03T03:46:07.593Z,11.37
2022-12-03T03:48:35.397Z,10.30
2022-12-03T03:51:08.686Z,15.03
2022-12-03T03:53:42.671Z,10.40
2022-12-03T03:56:11.312Z,16.53
2022-12-03T03:58:38.855Z,13.97
2022-12-03T04:01:06.462Z,13.93
2022-12-03T04:03:34.581Z,12.13
2022-12-03T04:06:02.252Z,15.00
2022-12-03T04:08:29.549Z,13.60
2022-12-03T04:11:15.193Z,12.63
2022-12-03T04:13:42.430Z,13.27
2022-12-03T04:16:10.820Z,15.57
2022-12-03T04:18:43.894Z,13.47
2022-12-03T04:21:40.616Z,12.57
2022-12-03T04:24:10.195Z,13.60
2022-12-03T04:26:56.563Z,12.27
2022-12-03T04:29:24.074Z,16.17
2022-12-03T04:32:09.748Z,13.90
2022-12-03T04:34:56.153Z,13.90
2022-12-03T04:37:23.734Z,13.80
2022-12-03T04:39:51.407Z,13.40
2022-12-03T04:42:18.736Z,12.77
2022-12-03T04:44:46.004Z,14.03
2022-12-03T04:47:15.678Z,14.17
2022-12-03T04:49:48.391Z,14.33
2022-12-03T04:52:18.137Z,13.90
2022-12-03T04:54:45.773Z,13.37
2022-12-03T04:57:13.160Z,15.77
2022-12-03T04:59:40.350Z,16.57
2022-12-03T05:02:08.086Z,12.70
2022-12-03T05:04:35.727Z,15.03
2022-12-03T05:07:03.309Z,15.27
2022-12-03T05:09:30.678Z,15.53
2022-12-03T05:11:57.901Z,16.07
2022-12-03T05:14:25.071Z,17.83
2022-12-03T05:16:52.298Z,18.97
2022-12-03T05:19:19.564Z,20.33
2022-12-03T05:21:46.727Z,17.23
2022-12-03T05:24:14.871Z,13.43
2022-12-03T05:26:42.152Z,17.20
2022-12-03T05:29:09.352Z,17.83
2022-12-03T05:31:36.610Z,16.43
2022-12-03T05:34:04.530Z,15.83
2022-12-03T05:36:31.713Z,16.33
2022-12-03T05:38:58.919Z,13.20
2022-12-03T05:41:44.666Z,12.73
2022-12-03T05:44:14.987Z,12.97
2022-12-03T05:46:44.774Z,14.47
2022-12-03T05:49:12.066Z,16.03
2022-12-03T05:51:39.356Z,13.63
2022-12-03T05:54:06.540Z,14.30
2022-12-03T05:56:33.775Z,14.57
2022-12-03T05:59:01.004Z,12.77
2022-12-03T06:01:28.275Z,11.27
2022-12-03T06:03:55.566Z,13.77
2022-12-03T06:06:22.823Z,14.10
2022-12-03T06:08:50.258Z,16.03
2022-12-03T06:11:17.519Z,16.90
2022-12-03T06:13:44.738Z,13.20
2022-12-03T06:16:12.055Z,12.97
2022-12-03T06:18:39.613Z,12.80
2022-12-03T06:21:06.801Z,12.63
2022-12-03T06:23:34.080Z,18.03
2022-12-03T06:26:01.309Z,13.87
2022-12-03T06:28:28.593Z,14.30
2022-12-03T06:30:55.840Z,15.00
2022-12-03T06:33:23.161Z,13.40
2022-12-03T06:35:50.331Z,18.57
2022-12-03T06:38:17.554Z,16.20
2022-12-03T06:40:44.796Z,16.43
2022-12-03T06:43:12.016Z,17.77
2022-12-03T06:45:42.114Z,16.53
2022-12-03T06:48:13.511Z,13.60
2022-12-03T06:50:40.649Z,14.93
2022-12-03T06:53:07.860Z,15.00
2022-12-03T06:55:35.123Z,25.67
2022-12-03T06:58:02.385Z,12.53
2022-12-03T07:00:29.800Z,15.27
2022-12-03T07:02:57.048Z,11.90
2022-12-03T07:05:24.299Z,15.57
2022-12-03T07:07:52.250Z,14.43
2022-12-03T07:10:19.700Z,15.97
2022-12-03T07:12:47.109Z,14.20
2022-12-03T07:15:14.420Z,16.30
2022-12-03T07:17:41.633Z,17.23
2022-12-03T07:20:09.853Z,16.50
2022-12-03T07:22:37.186Z,15.63
2022-12-03T07:25:05.274Z,13.73
2022-12-03T07:27:32.587Z,14.60
2022-12-03T07:29:59.950Z,14.17
2022-12-03T07:32:27.530Z,13.73
2022-12-03T07:34:54.999Z,17.23
2022-12-03T07:37:23.493Z,19.53
2022-12-03T07:39:52.497Z,17.80
2022-12-03T07:42:19.808Z,13.40
2022-12-03T07:44:47.024Z,16.37
2022-12-03T07:47:14.318Z,13.53
2022-12-03T07:49:41.579Z,15.77
2022-12-03T07:52:09.001Z,16.03
2022-12-03T07:54:36.196Z,14.00
2022-12-03T07:57:03.479Z,16.80
2022-12-03T07:59:30.740Z,13.27
2022-12-03T08:01:58.029Z,13.20
2022-12-03T08:04:25.362Z,14.30
2022-12-03T08:06:52.605Z,14.37
2022-12-03T08:09:20.038Z,15.93
2022-12-03T08:11:48.852Z,15.13
2022-12-03T08:14:18.581Z,13.87
2022-12-03T08:16:47.299Z,14.03
2022-12-03T08:19:17.432Z,12.67
2022-12-03T08:21:45.042Z,12.73
2022-12-03T08:24:19.216Z,11.50
2022-12-03T08:26:48.303Z,13.83
2022-12-03T08:29:18.354Z,15.57
2022-12-03T08:31:52.149Z,14.00
2022-12-03T08:34:38.874Z,11.53
2022-12-03T08:37:13.941Z,11.97
2022-12-03T08:39:53.601Z,12.47
2022-12-03T08:42:44.043Z,11.20
2022-12-03T08:45:39.850Z,13.20
2022-12-03T08:48:25.826Z,10.20
2022-12-03T08:50:55.645Z,15.50
2022-12-03T08:53:30.036Z,12.60
2022-12-03T08:56:00.331Z,12.30
2022-12-03T08:58:36.354Z,12.13
2022-12-03T09:01:12.581Z,14.03
2022-12-03T09:03:51.490Z,14.67
2022-12-03T09:06:19.017Z,12.60
2022-12-03T09:08:46.609Z,10.57
2022-12-03T09:11:14.469Z,13.73
2022-12-03T09:13:41.693Z,12.23
2022-12-03T09:16:09.026Z,12.53
2022-12-03T09:18:36.299Z,12.63
2022-12-03T09:21:03.872Z,13.93
2022-12-03T09:23:31.744Z,11.97
2022-12-03T09:25:59.520Z,11.33
2022-12-03T09:28:26.822Z,11.67
2022-12-03T09:30:54.070Z,14.07
2022-12-03T09:33:21.449Z,13.73
2022-12-03T09:35:48.846Z,13.10
2022-12-03T09:38:16.096Z,13.13
2022-12-03T09:40:43.414Z,12.70
2022-12-03T09:43:12.146Z,13.27
2022-12-03T09:45:39.577Z,15.53
2022-12-03T09:48:06.966Z,12.73
2022-12-03T09:50:36.499Z,11.97
2022-12-03T09:53:03.930Z,14.53
2022-12-03T09:55:31.337Z,10.87
2022-12-03T09:57:58.822Z,12.33
2022-12-03T10:00:29.693Z,12.57
2022-12-03T10:03:01.318Z,12.43
2022-12-03T10:05:29.347Z,11.23
2022-12-03T10:08:05.117Z,15.50
2022-12-03T10:10:34.621Z,10.03
2022-12-03T10:13:02.496Z,12.17
2022-12-03T10:15:29.780Z,15.40
2022-12-03T10:17:58.337Z,12.57
2022-12-03T10:20:26.416Z,11.37
2022-12-03T10:22:53.738Z,12.53
2022-12-03T10:25:22.780Z,9.60
2022-12-03T10:28:04.088Z,11.33
2022-12-03T10:30:32.031Z,11.83
2022-12-03T10:33:02.614Z,13.20
2022-12-03T10:35:38.796Z,15.03
2022-12-03T10:38:27.883Z,12.30
2022-12-03T10:40:55.170Z,10.50
2022-12-03T10:43:25.219Z,14.00
2022-12-03T10:46:12.366Z,12.13
2022-12-03T10:48:39.816Z,12.47
2022-12-03T10:51:22.626Z,14.00
2022-12-03T10:53:50.705Z,12.53
2022-12-03T10:56:25.805Z,12.93
2022-12-03T10:58:54.541Z,12.80
2022-12-03T11:01:24.803Z,12.13
2022-12-03T11:03:53.844Z,14.50
2022-12-03T11:06:23.549Z,20.33
2022-12-03T11:08:57.787Z,13.17
2022-12-03T11:11:28.727Z,15.50
2022-12-03T11:13:59.764Z,16.13
2022-12-03T11:16:39.311Z,9.77
2022-12-03T11:19:12.353Z,15.17
2022-12-03T11:22:09.858Z,14.30
2022-12-03T11:24:39.761Z,14.13
2022-12-03T11:27:16.867Z,12.73
2022-12-03T11:29:56.357Z,9.47
2022-12-03T11:32:38.933Z,10.10
2022-12-03T11:35:13.275Z,12.20
2022-12-03T11:37:40.803Z,13.63
2022-12-03T11:40:17.283Z,14.90
2022-12-03T11:42:49.711Z,13.67
2022-12-03T11:45:33.467Z,13.13
2022-12-03T11:48:09.032Z,11.10
2022-12-03T11:50:40.683Z,13.17
2022-12-03T11:53:13.031Z,14.20
2022-12-03T11:55:48.423Z,13.33
2022-12-03T11:58:18.657Z,14.10
2022-12-03T12:00:54.325Z,13.97
2022-12-03T12:03:36.897Z,14.93
2022-12-03T12:06:08.556Z,15.53
2022-12-03T12:08:38.759Z,14.37
2022-12-03T12:11:25.244Z,21.33
2022-12-03T12:13:54.584Z,15.43
2022-12-03T12:16:40.125Z,14.60
2022-12-03T12:19:40.624Z,14.13
2022-12-03T12:22:27.665Z,15.60
2022-12-03T12:24:57.398Z,14.17
2022-12-03T12:27:34.333Z,14.80
2022-12-03T12:30:05.485Z,16.77
2022-12-03T12:32:49.172Z,19.40
2022-12-03T12:35:25.665Z,14.80
2022-12-03T12:38:21.137Z,16.00
2022-12-03T12:40:50.156Z,17.07
2022-12-03T12:43:24.533Z,17.80
2022-12-03T12:45:56.838Z,17.33
2022-12-03T12:48:31.365Z,15.43
2022-12-03T12:51:11.523Z,14.40
2022-12-03T12:53:40.640Z,19.57
2022-12-03T12:56:31.089Z,18.33
2022-12-03T12:59:12.730Z,17.70
2022-12-03T13:01:41.289Z,18.27
2022-12-03T13:04:17.595Z,15.90
2022-12-03T13:06:46.756Z,16.63
2022-12-03T13:09:18.524Z,17.77
2022-12-03T13:11:51.967Z,15.60
2022-12-03T13:14:26.557Z,15.47
2022-12-03T13:16:56.683Z,18.27
2022-12-03T13:19:30.190Z,16.43
2022-12-03T13:22:17.471Z,20.23
2022-12-03T13:24:47.742Z,15.33
2022-12-03T13:27:18.018Z,17.20
2022-12-03T13:29:47.501Z,11.83
2022-12-03T13:32:20.412Z,18.63
2022-12-03T13:34:50.384Z,16.23
2022-12-03T13:37:23.358Z,18.23
2022-12-03T13:39:54.042Z,14.40
2022-12-03T13:42:38.977Z,15.83
2022-12-03T13:45:31.005Z,15.83
2022-12-03T13:48:02.151Z,18.30
2022-12-03T13:50:34.698Z,17.10
2022-12-03T13:53:32.778Z,19.67
2022-12-03T13:56:28.176Z,19.10
2022-12-03T13:58:57.263Z,16.80
2022-12-03T14:01:24.636Z,17.53
2022-12-03T14:03:51.967Z,16.57
2022-12-03T14:06:19.219Z,18.63
2022-12-03T14:08:46.390Z,17.90
2022-12-03T14:11:33.699Z,16.83
2022-12-03T14:14:01.146Z,19.10
2022-12-03T14:16:28.486Z,18.20
2022-12-03T14:18:55.694Z,19.80
2022-12-03T14:21:22.987Z,20.77
2022-12-03T14:23:50.192Z,19.87
2022-12-03T14:26:17.475Z,20.20
2022-12-03T14:28:44.804Z,24.30
2022-12-03T14:31:12.133Z,17.33
2022-12-03T14:33:39.363Z,18.47
2022-12-03T14:36:06.923Z,18.97
2022-12-03T14:38:34.129Z,18.87
2022-12-03T14:41:01.361Z,17.77
2022-12-03T14:43:28.541Z,18.40
2022-12-03T14:45:55.776Z,15.43
2022-12-03T14:48:23.091Z,20.23
2022-12-03T14:50:50.373Z,19.70
2022-12-03T14:53:32.631Z,18.57
2022-12-03T14:55:59.865Z,19.97
2022-12-03T14:58:27.074Z,17.57
2022-12-03T15:00:54.280Z,18.90
2022-12-03T15:03:22.557Z,18.37
2022-12-03T15:05:49.752Z,21.67
2022-12-03T15:08:17.042Z,18.43
2022-12-03T15:10:44.454Z,18.80
2022-12-03T15:13:11.712Z,17.50
2022-12-03T15:15:38.945Z,20.23
2022-12-03T15:18:06.160Z,19.60
2022-12-03T15:20:35.355Z,18.23
2022-12-03T15:23:02.741Z,19.80
2022-12-03T15:25:30.021Z,18.53
2022-12-03T15:27:57.470Z,18.00
2022-12-03T15:30:24.874Z,22.13
2022-12-03T15:32:52.110Z,21.77
2022-12-03T15:35:21.781Z,21.63
2022-12-03T15:37:49.102Z,21.20
2022-12-03T15:40:16.548Z,21.73
2022-12-03T15:42:43.896Z,21.57
2022-12-03T15:45:15.106Z,21.20
2022-12-03T15:47:42.853Z,18.17
2022-12-03T15:50:10.413Z,21.43
2022-12-03T15:52:37.723Z,21.30
2022-12-03T15:55:05.216Z,25.13
2022-12-03T15:57:33.967Z,20.33
2022-12-03T16:00:01.433Z,26.13
2022-12-03T16:02:33.801Z,21.47
2022-12-03T16:05:02.612Z,21.23
2022-12-03T16:07:29.895Z,21.17
2022-12-03T16:09:57.324Z,21.90
2022-12-03T16:12:25.036Z,18.00
2022-12-03T16:14:52.261Z,21.13
2022-12-03T16:17:19.547Z,23.30
2022-12-03T16:19:47.217Z,20.23
2022-12-03T16:22:14.795Z,21.03
2022-12-03T16:24:42.015Z,21.63
2022-12-03T16:27:09.304Z,22.47
2022-12-03T16:29:36.571Z,24.50
2022-12-03T16:32:05.500Z,22.03
2022-12-03T16:34:32.741Z,19.93
2022-12-03T16:37:00.246Z,22.50
2022-12-03T16:39:27.473Z,23.10
2022-12-03T16:41:54.734Z,23.43
2022-12-03T16:44:32.802Z,24.27
2022-12-03T16:47:01.399Z,21.93
2022-12-03T16:49:28.743Z,25.17
2022-12-03T16:51:56.009Z,25.80
2022-12-03T16:54:23.409Z,22.53
2022-12-03T16:56:50.708Z,20.83
2022-12-03T16:59:17.972Z,20.53
2022-12-03T17:01:45.395Z,20.93
2022-12-03T17:04:12.621Z,21.93
2022-12-03T17:06:39.919Z,19.80
2022-12-03T17:09:07.173Z,20.90
2022-12-03T17:11:34.419Z,27.87
2022-12-03T17:14:01.643Z,25.33
2022-12-03T17:16:29.191Z,24.10
2022-12-03T17:18:56.498Z,23.40
2022-12-03T17:21:23.701Z,20.80
2022-12-03T17:23:50.983Z,20.80
2022-12-03T17:26:18.810Z,23.37
2022-12-03T17:28:46.637Z,22.60
2022-12-03T17:31:14.104Z,19.77
2022-12-03T17:33:41.468Z,22.47
2022-12-03T17:36:10.341Z,18.60
2022-12-03T17:38:39.475Z,19.90
2022-12-03T17:41:07.542Z,19.37
2022-12-03T17:43:34.870Z,22.00
2022-12-03T17:46:02.133Z,18.90
2022-12-03T17:48:31.054Z,22.80
2022-12-03T17:50:58.451Z,18.23
2022-12-03T17:53:25.829Z,21.80
2022-12-03T17:55:53.122Z,19.37
2022-12-03T17:58:20.397Z,19.40
2022-12-03T18:00:47.793Z,17.80
2022-12-03T18:03:14.980Z,18.33
2022-12-03T18:05:42.274Z,16.87
2022-12-03T18:08:09.677Z,17.67
2022-12-03T18:10:37.001Z,16.80
2022-12-03T18:13:04.362Z,16.20
2022-12-03T18:15:32.625Z,16.47
2022-12-03T18:17:59.929Z,17.37
2022-12-03T18:20:27.263Z,16.57
2022-12-03T18:22:54.767Z,17.80
2022-12-03T18:25:22.087Z,18.77
2022-12-03T18:27:49.383Z,14.37
2022-12-03T18:30:16.937Z,18.47
2022-12-03T18:32:44.387Z,18.10
2022-12-03T18:35:11.599Z,18.73
2022-12-03T18:37:39.114Z,18.67
2022-12-03T18:40:12.744Z,18.13
2022-12-03T18:42:40.569Z,22.47
2022-12-03T18:45:11.639Z,16.53
2022-12-03T18:47:39.077Z,18.80
2022-12-03T18:50:07.430Z,15.87
2022-12-03T18:52:34.694Z,18.73
2022-12-03T18:55:02.332Z,21.00
2022-12-03T18:57:29.796Z,21.57
2022-12-03T18:59:57.443Z,21.43
2022-12-03T19:03:00.691Z,17.13
2022-12-03T19:05:12.447Z,15.93
2022-12-03T19:07:39.763Z,16.83
2022-12-03T19:10:07.725Z,16.43
2022-12-03T19:12:35.255Z,15.43
2022-12-03T19:15:04.207Z,18.03
2022-12-03T19:17:32.050Z,18.10
2022-12-03T19:19:59.326Z,16.37
2022-12-03T19:22:26.777Z,16.67
2022-12-03T19:24:53.992Z,16.43
2022-12-03T19:27:21.301Z,14.43
2022-12-03T19:29:49.347Z,19.40
2022-12-03T19:32:16.558Z,15.87
2022-12-03T19:34:43.740Z,18.70
2022-12-03T19:37:11.211Z,17.67
2022-12-03T19:39:38.422Z,17.03
2022-12-03T19:42:05.793Z,20.50
2022-12-03T19:44:33.024Z,20.37
2022-12-03T19:47:00.227Z,21.13
2022-12-03T19:49:27.621Z,19.27
2022-12-03T19:51:54.929Z,19.17
2022-12-03T19:54:22.212Z,20.63
2022-12-03T19:56:49.482Z,15.73
2022-12-03T19:59:16.811Z,15.37
2022-12-03T20:01:44.279Z,15.60
2022-12-03T20:04:12.315Z,15.43
2022-12-03T20:06:39.634Z,14.97
2022-12-03T20:09:12.995Z,16.33
2022-12-03T20:11:41.833Z,16.73
2022-12-03T20:14:13.035Z,19.00
2022-12-03T20:16:40.471Z,16.60
2022-12-03T20:19:11.025Z,16.27
2022-12-03T20:21:40.763Z,16.03
2022-12-03T20:24:10.855Z,17.53
2022-12-03T20:26:38.333Z,15.27
2022-12-03T20:29:05.668Z,15.60
2022-12-03T20:31:33.019Z,22.70
2022-12-03T20:34:02.546Z,18.10
2022-12-03T20:36:31.278Z,18.53
2022-12-03T20:39:04.032Z,17.60
2022-12-03T20:41:33.762Z,15.93
2022-12-03T20:44:02.286Z,17.27
2022-12-03T20:46:31.337Z,17.03
2022-12-03T20:48:59.729Z,17.00
2022-12-03T20:51:30.008Z,15.57
2022-12-03T20:53:59.222Z,16.67
2022-12-03T20:56:32.455Z,16.57
2022-12-03T20:59:01.547Z,16.60
2022-12-03T21:01:29.085Z,17.80
2022-12-03T21:03:57.396Z,18.90
2022-12-03T21:06:26.778Z,18.73
2022-12-03T21:08:55.019Z,18.90
2022-12-03T21:11:25.007Z,17.60
2022-12-03T21:13:53.803Z,18.87
2022-12-03T21:16:45.543Z,21.77
2022-12-03T21:19:12.601Z,18.67
2022-12-03T21:21:40.463Z,19.33
2022-12-03T21:24:08.901Z,21.17
2022-12-03T21:26:36.423Z,19.93
2022-12-03T21:29:03.690Z,21.07
2022-12-03T21:31:31.867Z,19.27
2022-12-03T21:33:59.502Z,20.50
2022-12-03T21:36:26.980Z,19.53
2022-12-03T21:38:54.243Z,24.93
2022-12-03T21:41:21.440Z,20.70
2022-12-03T21:43:48.760Z,22.10
2022-12-03T21:47:12.530Z,22.27
2022-12-03T21:49:04.577Z,21.33
2022-12-03T21:51:31.919Z,17.80
2022-12-03T21:53:59.243Z,23.00
2022-12-03T21:56:26.432Z,20.90
2022-12-03T21:58:54.657Z,21.30
2022-12-03T22:01:23.772Z,22.17
2022-12-03T22:03:51.148Z,22.67
2022-12-03T22:06:18.878Z,16.73
2022-12-03T22:08:46.730Z,19.13
2022-12-03T22:11:18.124Z,21.77
2022-12-03T22:13:45.732Z,18.30
2022-12-03T22:16:15.958Z,20.17
2022-12-03T22:18:43.588Z,20.80
2022-12-03T22:21:16.831Z,26.40
2022-12-03T22:23:44.363Z,23.60
2022-12-03T22:26:13.819Z,22.37
2022-12-03T22:28:46.248Z,23.67
2022-12-03T22:31:14.032Z,22.00
2022-12-03T22:33:41.882Z,22.00
2022-12-03T22:36:19.778Z,21.53
2022-12-03T22:38:48.031Z,22.90
2022-12-03T22:41:15.720Z,17.97
2022-12-03T22:43:43.081Z,21.40
2022-12-03T22:46:12.406Z,24.87
2022-12-03T22:48:41.440Z,20.30
2022-12-03T22:51:18.044Z,19.77
2022-12-03T22:53:45.767Z,23.00
2022-12-03T22:56:15.103Z,19.97
2022-12-03T22:58:42.353Z,20.30
2022-12-03T23:01:09.650Z,21.17
2022-12-03T23:03:37.261Z,22.63
2022-12-03T23:06:12.104Z,22.03
2022-12-03T23:08:39.464Z,20.30
2022-12-03T23:11:07.653Z,24.10
2022-12-03T23:13:35.343Z,20.00
2022-12-03T23:16:03.230Z,23.57
2022-12-03T23:18:31.011Z,22.47
2022-12-03T23:20:58.645Z,21.70
2022-12-03T23:23:27.482Z,20.20
2022-12-03T23:25:58.814Z,27.83
2022-12-03T23:28:27.373Z,19.37
2022-12-03T23:30:54.872Z,24.17
2022-12-03T23:33:22.677Z,28.60
2022-12-03T23:35:50.041Z,17.73
2022-12-03T23:38:17.338Z,24.00
2022-12-03T23:40:48.077Z,26.37
2022-12-03T23:43:16.538Z,23.23
2022-12-03T23:45:43.745Z,22.17
2022-12-03T23:48:11.297Z,27.17
2022-12-03T23:50:40.601Z,21.40
2022-12-03T23:53:08.230Z,23.30
2022-12-03T23:55:41.857Z,21.63
2022-12-03T23:58:12.069Z,22.17
